Time;durP1;ratioP1;P1;durP2;ratioP2;P2;SDS_P1;SDS_P2;PMS_P1;PMS_P2;Temp;Humidity;BMP_temperature;BMP_pressure;BME280_temperature;BME280_humidity;BME280_pressure;Samples;Min_cycle;Max_cycle;Signal;HPM_P1;HPM_P2
2024/01/09 00:02:18;;;;;;;7.10;4.65;;;;;;;-5.35;74.74;103359.00;4994305;28;20109;-81
2024/01/09 00:04:43;;;;;;;8.25;4.30;;;;;;;-5.35;74.41;103349.78;4994045;28;20041;-82
2024/01/09 00:07:09;;;;;;;6.78;4.32;;;;;;;-5.33;73.71;103345.66;4995218;28;20397;-82
2024/01/09 00:09:35;;;;;;;6.70;4.60;;;;;;;-5.49;74.96;103336.59;4994135;28;20031;-82
2024/01/09 00:12:00;;;;;;;7.22;4.40;;;;;;;-5.77;74.69;103288.38;4995454;28;20462;-81
2024/01/09 00:14:26;;;;;;;6.78;4.60;;;;;;;-5.41;75.17;103352.00;4993779;28;20038;-81
2024/01/09 00:16:51;;;;;;;6.22;4.20;;;;;;;-5.44;75.51;103356.06;4994147;28;20116;-81
2024/01/09 00:19:16;;;;;;;7.05;4.28;;;;;;;-5.51;75.35;103340.69;4993663;28;20026;-81
2024/01/09 00:21:42;;;;;;;7.30;4.30;;;;;;;-5.53;75.76;103338.91;4993935;28;20441;-81
2024/01/09 00:24:10;;;;;;;7.15;4.60;;;;;;;-5.56;75.46;103342.16;4993905;28;20023;-81
2024/01/09 00:26:42;;;;;;;7.28;4.35;;;;;;;-5.69;75.51;103313.88;4994077;28;20117;-82
2024/01/09 00:29:08;;;;;;;8.32;4.70;;;;;;;-5.62;74.70;103315.84;4995109;28;20030;-82
2024/01/09 00:31:48;;;;;;;7.78;5.00;;;;;;;-5.49;74.91;103345.81;5047578;23;20053;-82
2024/01/09 00:34:13;;;;;;;9.32;4.35;;;;;;;-5.53;75.42;103352.34;4977847;28;20088;-82
2024/01/09 00:36:45;;;;;;;7.18;4.30;;;;;;;-5.76;76.33;103317.78;4995054;28;20038;-82
2024/01/09 00:39:15;;;;;;;7.65;4.70;;;;;;;-5.60;76.38;103352.03;4994765;28;20030;-82
2024/01/09 00:41:40;;;;;;;6.95;4.75;;;;;;;-5.74;77.16;103328.75;5009613;28;20064;-82
2024/01/09 00:44:06;;;;;;;6.60;4.32;;;;;;;-5.66;76.78;103350.09;4994907;28;20101;-81
2024/01/09 00:46:31;;;;;;;7.35;4.70;;;;;;;-5.60;76.35;103359.59;4994725;28;20109;-82
2024/01/09 00:48:56;;;;;;;6.95;4.70;;;;;;;-5.64;76.46;103350.16;4994715;28;20054;-81
2024/01/09 00:51:22;;;;;;;6.40;4.40;;;;;;;-5.68;76.26;103349.19;5009757;28;20486;-82
2024/01/09 00:53:47;;;;;;;6.82;4.22;;;;;;;-5.64;76.96;103356.06;5008850;28;20046;-81
2024/01/09 00:56:12;;;;;;;7.88;4.95;;;;;;;-5.66;76.90;103359.31;5009638;28;20045;-82
2024/01/09 00:58:38;;;;;;;7.88;4.18;;;;;;;-5.99;76.35;103293.31;4993136;28;20034;-83
2024/01/09 01:01:03;;;;;;;7.80;4.70;;;;;;;-5.66;75.88;103346.72;5009338;28;20401;-80
2024/01/09 01:03:29;;;;;;;8.50;4.95;;;;;;;-5.67;76.30;103345.00;4994058;28;20035;-81
2024/01/09 01:05:58;;;;;;;7.45;4.60;;;;;;;-5.65;75.37;103339.25;5009372;28;20490;-83
2024/01/09 01:08:23;;;;;;;8.18;4.90;;;;;;;-5.69;76.59;103344.09;5009452;28;20089;-82
2024/01/09 01:10:48;;;;;;;6.35;4.40;;;;;;;-5.70;76.34;103343.22;5009216;28;20022;-83
2024/01/09 01:13:14;;;;;;;6.80;4.43;;;;;;;-5.72;75.64;103334.72;4994266;28;20110;-82
2024/01/09 01:15:39;;;;;;;6.47;4.45;;;;;;;-5.72;75.98;103337.22;4976743;28;20026;-83
2024/01/09 01:18:05;;;;;;;7.05;4.82;;;;;;;-5.70;76.47;103345.75;5008928;28;20034;-82
2024/01/09 01:20:30;;;;;;;8.98;5.10;;;;;;;-5.70;75.71;103338.19;5009143;28;20120;-83
2024/01/09 01:22:55;;;;;;;6.70;4.15;;;;;;;-6.12;76.29;103271.75;4993757;28;20084;-83
2024/01/09 01:25:21;;;;;;;8.00;4.63;;;;;;;-5.77;76.21;103349.63;4993857;28;20029;-83
2024/01/09 01:27:46;;;;;;;6.55;4.35;;;;;;;-5.87;76.50;103349.16;5008941;28;20045;-82
2024/01/09 01:30:11;;;;;;;6.82;4.32;;;;;;;-5.82;75.88;103348.53;4993895;28;20045;-82
2024/01/09 01:32:37;;;;;;;6.47;4.20;;;;;;;-5.90;76.75;103344.00;4993786;28;20053;-81
2024/01/09 01:35:02;;;;;;;7.05;4.47;;;;;;;-5.82;76.35;103361.13;4992068;28;20387;-83
2024/01/09 01:37:36;;;;;;;7.32;4.40;;;;;;;-5.96;76.55;103338.72;5000076;23;20054;-84
2024/01/09 01:40:03;;;;;;;7.18;4.25;;;;;;;-6.31;75.91;103276.75;4993457;28;20046;-83
2024/01/09 01:42:28;;;;;;;7.13;4.20;;;;;;;-5.84;76.78;103361.88;4993496;28;20034;-82
2024/01/09 01:44:58;;;;;;;7.72;4.50;;;;;;;-5.83;76.16;103359.41;4992552;28;20521;-81
2024/01/09 01:47:24;;;;;;;7.00;4.53;;;;;;;-5.86;76.15;103363.47;4999309;23;20066;-82
2024/01/09 01:49:49;;;;;;;6.90;4.30;;;;;;;-5.90;76.37;103354.06;5008414;28;20130;-82
2024/01/09 01:52:15;;;;;;;6.85;4.18;;;;;;;-5.87;76.08;103351.66;4993347;28;20463;-82
2024/01/09 01:54:41;;;;;;;6.82;4.22;;;;;;;-5.86;76.60;103351.72;4992041;28;20038;-81
2024/01/09 01:57:08;;;;;;;7.18;4.53;;;;;;;-5.89;76.88;103348.22;4993549;28;20481;-82
2024/01/09 01:59:38;;;;;;;7.57;4.20;;;;;;;-5.86;77.15;103360.94;4993708;28;20109;-82
2024/01/09 02:02:05;;;;;;;6.70;4.40;;;;;;;-5.88;77.17;103363.38;4992748;28;20117;-81
2024/01/09 02:04:31;;;;;;;6.95;4.40;;;;;;;-6.12;76.70;103322.03;4993263;28;20026;-81
2024/01/09 02:06:57;;;;;;;6.85;4.35;;;;;;;-5.99;77.55;103352.03;4993229;28;20068;-83
2024/01/09 02:09:23;;;;;;;8.02;4.80;;;;;;;-6.27;78.04;103322.22;4975996;28;20109;-81
2024/01/09 02:11:49;;;;;;;5.78;3.90;;;;;;;-5.95;77.27;103365.59;4993203;28;20030;-81
2024/01/09 02:14:15;;;;;;;6.80;4.43;;;;;;;-6.16;78.54;103328.59;5008071;28;20081;-81
2024/01/09 02:16:40;;;;;;;8.95;4.55;;;;;;;-6.24;78.82;103318.97;4990777;28;20031;-82
2024/01/09 02:19:05;;;;;;;7.93;4.55;;;;;;;-6.02;78.66;103359.41;4992897;28;20034;-81
2024/01/09 02:21:31;;;;;;;7.03;4.45;;;;;;;-6.07;79.60;103353.31;5008247;28;20463;-82
2024/01/09 02:23:56;;;;;;;6.47;4.22;;;;;;;-6.08;79.73;103347.44;5008299;28;20121;-81
2024/01/09 02:26:29;;;;;;;6.82;4.60;;;;;;;-6.39;80.09;103306.53;5008010;28;20490;-82
2024/01/09 02:28:58;;;;;;;7.50;4.90;;;;;;;-6.33;81.08;103316.91;5008018;28;20026;-83
2024/01/09 02:31:25;;;;;;;6.53;4.18;;;;;;;-6.14;80.27;103348.78;4991754;28;20027;-82
2024/01/09 02:33:51;;;;;;;7.03;4.45;;;;;;;-6.33;81.06;103316.03;4992786;28;20030;-82
2024/01/09 02:36:17;;;;;;;7.50;4.50;;;;;;;-6.17;80.78;103344.50;5008168;28;20031;-82
2024/01/09 02:38:43;;;;;;;8.07;4.88;;;;;;;-6.50;81.21;103275.88;4975621;28;20037;-82
2024/01/09 02:41:08;;;;;;;6.65;5.00;;;;;;;-6.46;81.94;103289.47;5007814;28;20037;-81
2024/01/09 02:43:34;;;;;;;8.07;4.82;;;;;;;-6.22;81.47;103338.38;5007775;28;20026;-83
2024/01/09 02:45:59;;;;;;;8.15;4.50;;;;;;;-6.22;82.57;103335.84;5007730;28;20394;-82
2024/01/09 02:48:24;;;;;;;5.45;4.00;;;;;;;-6.24;82.43;103344.13;5007704;28;20057;-82
2024/01/09 02:50:50;;;;;;;7.75;4.85;;;;;;;-6.26;82.19;103339.03;5007992;28;20057;-82
2024/01/09 02:53:15;;;;;;;9.13;4.15;;;;;;;-6.23;81.96;103335.78;5008073;28;20070;-82
2024/01/09 02:55:40;;;;;;;8.35;4.40;;;;;;;-6.30;83.25;103328.75;5007722;28;20023;-83
2024/01/09 02:58:07;;;;;;;6.93;4.20;;;;;;;-6.27;83.47;103336.44;4999494;23;20054;-82
2024/01/09 03:00:33;;;;;;;6.70;4.82;;;;;;;-6.28;83.91;103327.19;4975534;28;20026;-82
2024/01/09 03:03:01;;;;;;;6.93;4.35;;;;;;;-6.31;83.72;103332.06;4975310;28;20041;-82
2024/01/09 03:05:29;;;;;;;6.32;4.30;;;;;;;-6.84;83.98;103245.84;4991641;28;20023;-82
2024/01/09 03:07:54;;;;;;;7.10;3.78;;;;;;;-6.31;82.86;103329.53;4990897;28;20038;-82
2024/01/09 03:10:20;;;;;;;7.10;4.60;;;;;;;-6.32;84.20;103328.69;4991213;28;20371;-83
2024/01/09 03:12:45;;;;;;;6.38;4.18;;;;;;;-6.33;84.09;103323.59;4991287;28;20061;-82
2024/01/09 03:15:11;;;;;;;7.00;4.15;;;;;;;-6.57;84.14;103283.09;4991611;28;20038;-82
2024/01/09 03:17:36;;;;;;;6.75;4.32;;;;;;;-6.37;85.10;103320.06;4991360;28;20495;-82
2024/01/09 03:20:09;;;;;;;7.63;4.65;;;;;;;-6.37;85.18;103332.66;4991255;28;20026;-81
2024/01/09 03:22:34;;;;;;;7.82;4.60;;;;;;;-6.50;85.03;103310.22;4974778;28;20053;-82
2024/01/09 03:25:00;;;;;;;6.68;4.50;;;;;;;-6.41;85.25;103329.09;4991219;28;20038;-81
2024/01/09 03:27:25;;;;;;;7.25;4.63;;;;;;;-6.65;84.88;103282.72;4976391;28;20026;-83
2024/01/09 03:29:51;;;;;;;7.00;4.32;;;;;;;-6.43;85.81;103327.31;4996253;28;20113;-81
2024/01/09 03:32:16;;;;;;;7.28;4.85;;;;;;;-6.45;85.62;103328.91;4996158;28;20030;-82
2024/01/09 03:34:41;;;;;;;6.75;4.32;;;;;;;-6.43;85.66;103329.84;4994875;28;20069;-83
2024/01/09 03:37:07;;;;;;;8.93;4.72;;;;;;;-6.57;85.20;103300.69;4995043;28;20554;-84
2024/01/09 03:39:33;;;;;;;8.93;4.70;;;;;;;-6.66;85.19;103301.97;4995837;28;20022;-83
2024/01/09 03:41:58;;;;;;;7.78;5.00;;;;;;;-6.45;85.72;103323.88;4995754;28;20030;-83
2024/01/09 03:44:24;;;;;;;7.18;4.72;;;;;;;-6.46;86.29;103325.53;4995965;28;20018;-82
2024/01/09 03:46:58;;;;;;;7.20;4.72;;;;;;;-7.75;85.60;103106.75;4977959;28;20073;-82
2024/01/09 03:49:23;;;;;;;7.57;4.13;;;;;;;-6.98;85.43;103244.28;4978030;28;20420;-82
2024/01/09 03:51:52;;;;;;;8.73;5.00;;;;;;;-6.67;86.65;103294.38;4995807;28;20105;-82
2024/01/09 03:54:23;;;;;;;6.88;4.63;;;;;;;-6.99;85.88;103242.59;4996028;28;20105;-82
2024/01/09 03:56:49;;;;;;;;;;;;;;;-6.50;85.85;103311.06;4995369;28;20120;-83
2024/01/09 03:59:14;;;;;;;6.53;3.88;;;;;;;-6.82;85.42;103260.97;4995678;28;19917;-82
2024/01/09 04:01:43;;;;;;;6.68;4.50;;;;;;;-7.53;86.23;103159.69;4995731;28;20479;-81
2024/01/09 04:04:18;;;;;;;7.45;4.65;;;;;;;-6.56;86.56;103320.88;5011075;23;20080;-82
2024/01/09 04:06:46;;;;;;;9.80;5.03;;;;;;;-6.55;85.93;103320.06;4995800;28;20050;-83
2024/01/09 04:09:14;;;;;;;7.13;4.53;;;;;;;-6.53;86.53;103315.09;4995177;28;20023;-84
2024/01/09 04:11:46;;;;;;;8.27;4.40;;;;;;;-6.98;85.14;103246.81;5010173;28;20053;-84
2024/01/09 04:14:11;;;;;;;6.97;4.57;;;;;;;-6.50;84.98;103321.13;4995407;28;20030;-82
2024/01/09 04:16:36;;;;;;;7.22;4.60;;;;;;;-6.46;84.83;103314.63;4995087;28;20052;-82
2024/01/09 04:19:02;;;;;;;7.22;4.85;;;;;;;-6.49;85.29;103312.84;5010560;28;20068;-83
2024/01/09 04:21:27;;;;;;;7.28;4.65;;;;;;;-6.79;86.04;103276.19;5010387;28;20483;-83
2024/01/09 04:23:52;;;;;;;7.95;4.63;;;;;;;-6.46;84.65;103319.66;5009978;28;20500;-84
2024/01/09 04:26:18;;;;;;;8.77;4.55;;;;;;;-6.53;85.83;103312.59;5009946;28;20026;-83
2024/01/09 04:28:43;;;;;;;8.18;5.07;;;;;;;-6.51;85.31;103328.59;5009413;28;20085;-82
2024/01/09 04:31:08;;;;;;;7.68;4.78;;;;;;;-6.72;85.75;103288.25;5009959;28;20482;-82
2024/01/09 04:33:41;;;;;;;7.38;3.78;;;;;;;-6.52;85.58;103329.41;5047176;23;20054;-84
2024/01/09 04:36:06;;;;;;;7.93;4.50;;;;;;;-6.93;84.67;103256.31;4994577;28;20048;-83
2024/01/09 04:38:32;;;;;;;8.48;4.90;;;;;;;-6.57;86.17;103324.16;4993092;28;20035;-83
2024/01/09 04:40:57;;;;;;;7.13;4.57;;;;;;;-6.61;86.47;103322.28;4994254;28;20160;-82
2024/01/09 04:43:22;;;;;;;8.90;4.60;;;;;;;-6.64;86.70;103324.66;4993470;28;20030;-85
2024/01/09 04:45:48;;;;;;;8.45;5.07;;;;;;;-6.68;86.39;103328.69;4977413;28;20037;-82
2024/01/09 04:48:13;;;;;;;7.43;4.70;;;;;;;-6.73;87.04;103306.63;4993457;28;20038;-82
2024/01/09 04:50:38;;;;;;;8.75;4.50;;;;;;;-6.75;87.75;103308.22;4994806;28;20386;-82
2024/01/09 04:53:04;;;;;;;8.07;5.20;;;;;;;-6.65;86.62;103316.25;4994403;28;20070;-82
2024/01/09 04:55:29;;;;;;;8.00;4.43;;;;;;;-6.66;86.81;103322.06;4993442;28;20057;-82
2024/01/09 04:57:54;;;;;;;7.95;5.10;;;;;;;-7.21;87.35;103235.66;4993300;28;20026;-83
2024/01/09 05:00:21;;;;;;;7.07;4.78;;;;;;;-6.65;87.18;103308.72;4994549;28;20038;-82
2024/01/09 05:02:47;;;;;;;7.50;4.68;;;;;;;-6.96;86.90;103265.34;4976671;28;20037;-82
2024/01/09 05:05:14;;;;;;;8.40;4.13;;;;;;;-6.72;87.23;103308.34;4976962;28;20019;-83
2024/01/09 05:07:39;;;;;;;7.65;4.40;;;;;;;-6.87;86.75;103273.31;4976806;28;20022;-83
2024/01/09 05:10:05;;;;;;;7.28;4.75;;;;;;;-7.07;88.11;103244.75;4992955;28;20483;-82
2024/01/09 05:12:30;;;;;;;8.00;5.00;;;;;;;-6.66;87.12;103308.66;4992911;28;20026;-83
2024/01/09 05:14:56;;;;;;;8.82;5.50;;;;;;;-6.66;87.30;103314.53;4993183;28;20034;-82
2024/01/09 05:17:21;;;;;;;7.93;4.90;;;;;;;-6.67;87.59;103315.34;4992887;28;20033;-84
2024/01/09 05:19:46;;;;;;;8.30;4.65;;;;;;;-6.83;88.10;103296.94;4994587;28;20375;-82
2024/01/09 05:22:12;;;;;;;7.82;4.88;;;;;;;-6.73;88.04;103316.69;4993303;28;20037;-83
2024/01/09 05:24:37;;;;;;;7.63;4.63;;;;;;;-6.94;87.65;103276.31;4992707;28;20117;-83
2024/01/09 05:29:37;;;;;;;8.30;4.94;;;;;;;-7.68;88.42;103150.53;5080439;23;20066;-82
2024/01/09 05:34:53;;;;;;;7.63;4.22;;;;;;;-6.77;88.60;103318.19;4981732;23;20051;-83
2024/01/09 05:37:33;;;;;;;8.70;5.38;;;;;;;-8.09;89.21;103109.25;4974471;28;20049;-82
2024/01/09 05:40:06;;;;;;;9.63;5.55;;;;;;;-8.04;89.00;103122.88;4974950;28;20431;-82
2024/01/09 05:42:40;;;;;;;7.40;4.50;;;;;;;-8.13;89.85;103102.38;4974276;28;20030;-83
2024/01/09 05:45:15;;;;;;;8.40;5.18;;;;;;;-8.08;89.00;103095.91;4974147;28;20031;-83
2024/01/09 05:47:49;;;;;;;9.48;5.63;;;;;;;-8.12;89.35;103094.06;4974104;28;20014;-82
2024/01/09 05:50:15;;;;;;;8.55;5.07;;;;;;;-7.46;89.74;103205.16;4973584;28;20027;-83
2024/01/09 05:52:55;;;;;;;8.85;5.38;;;;;;;-8.16;89.69;103094.66;4973509;28;20073;-83
2024/01/09 05:55:29;;;;;;;7.38;5.03;;;;;;;-8.10;89.85;103105.00;4973968;28;20657;-83
2024/01/09 05:57:54;;;;;;;7.80;5.35;;;;;;;-8.04;90.55;103117.88;4973769;28;20031;-83
2024/01/09 06:00:20;;;;;;;9.13;5.10;;;;;;;-8.20;90.11;103097.81;4973890;28;20102;-84
2024/01/09 06:02:51;;;;;;;8.32;5.18;;;;;;;-8.07;89.86;103116.84;4973736;28;20086;-83
2024/01/09 06:05:17;;;;;;;9.43;5.20;;;;;;;-7.81;90.38;103146.56;4973897;28;20027;-82
2024/01/09 06:07:54;;;;;;;8.73;4.80;;;;;;;-8.10;90.63;103105.88;4973555;28;20490;-83
2024/01/09 06:10:19;;;;;;;8.23;5.13;;;;;;;-7.80;90.97;103164.19;4973474;28;20033;-84
2024/01/09 06:12:47;;;;;;;9.25;6.10;;;;;;;-8.24;91.38;103093.47;4971364;28;20129;-82
2024/01/09 06:15:25;;;;;;;9.95;5.07;;;;;;;-8.32;92.35;103082.19;4971413;28;20066;-82
2024/01/09 06:17:50;;;;;;;8.88;4.97;;;;;;;-7.15;92.10;103287.84;4971429;28;20602;-81
2024/01/09 06:20:15;;;;;;;8.95;5.30;;;;;;;-8.01;92.11;103137.22;4971458;28;20027;-81
2024/01/09 06:22:47;;;;;;;8.43;5.38;;;;;;;-8.19;91.47;103109.56;4971118;28;20035;-80
2024/01/09 06:25:21;;;;;;;9.90;5.20;;;;;;;-8.25;91.05;103091.72;4971263;28;20085;-81
2024/01/09 06:27:46;;;;;;;9.15;5.28;;;;;;;-8.18;91.00;103099.63;4970645;28;20031;-81
2024/01/09 06:30:15;;;;;;;9.35;6.25;;;;;;;-7.85;91.46;103145.56;4971274;28;20122;-80
2024/01/09 06:32:40;;;;;;;10.00;5.60;;;;;;;-6.97;91.14;103313.84;4971295;28;20086;-82
2024/01/09 06:35:06;;;;;;;9.23;5.20;;;;;;;-6.93;91.66;103330.78;4970517;28;20031;-82
2024/01/09 06:37:31;;;;;;;10.43;6.15;;;;;;;-7.17;92.65;103305.34;4954367;28;20125;-82
2024/01/09 06:42:52;;;;;;;10.18;5.22;;;;;;;-8.21;92.01;103123.66;4931860;29;20151;-81
2024/01/09 06:45:21;;;;;;;9.85;5.35;;;;;;;-7.18;91.55;103306.09;4932365;29;20187;-81
2024/01/09 06:47:52;;;;;;;10.00;5.75;;;;;;;-6.97;91.64;103344.84;4932426;29;20105;-81
2024/01/09 06:50:18;;;;;;;;;;;;;;;-6.92;91.91;103337.53;4933035;29;20044;-82
2024/01/09 06:52:43;;;;;;;8.85;5.13;;;;;;;-6.98;92.33;103347.28;4932652;29;20228;-81
2024/01/09 06:55:08;;;;;;;11.45;5.55;;;;;;;-7.10;91.52;103317.41;4932684;29;20046;-82
2024/01/09 06:57:34;;;;;;;10.20;5.90;;;;;;;-7.30;91.89;103285.44;4932254;29;20051;-82
2024/01/09 07:00:00;;;;;;;12.20;6.32;;;;;;;-7.08;92.35;103337.56;4916777;29;20103;-81
2024/01/09 07:02:25;;;;;;;9.35;6.20;;;;;;;-7.02;92.56;103342.91;4933782;29;20431;-82
2024/01/09 07:04:50;;;;;;;9.95;6.13;;;;;;;-7.01;92.44;103344.63;4936234;29;20059;-81
2024/01/09 07:07:16;;;;;;;9.68;6.35;;;;;;;-7.01;91.89;103337.94;4936425;29;20133;-81
2024/01/09 07:09:41;;;;;;;9.68;5.53;;;;;;;-7.07;91.95;103332.63;4936307;29;20415;-82
2024/01/09 07:12:09;;;;;;;9.63;6.68;;;;;;;-7.04;92.38;103342.81;4939053;29;20039;-77
2024/01/09 07:14:36;;;;;;;9.88;5.72;;;;;;;-7.06;92.64;103341.03;4955829;29;20055;-78
2024/01/09 07:17:03;;;;;;;9.57;6.13;;;;;;;-7.05;92.05;103346.13;4955770;29;20087;-80
2024/01/09 07:19:28;;;;;;;10.50;6.05;;;;;;;-6.98;91.67;103345.66;4969921;28;20038;-78
2024/01/09 07:21:54;;;;;;;11.15;6.20;;;;;;;-7.39;92.27;103274.94;4995080;28;20033;-79
2024/01/09 07:24:19;;;;;;;11.38;6.43;;;;;;;-6.99;91.94;103348.91;4995965;28;20113;-80
2024/01/09 07:26:45;;;;;;;9.73;6.22;;;;;;;-7.00;92.07;103359.75;4994866;28;20498;-81
2024/01/09 07:29:16;;;;;;;9.57;6.25;;;;;;;-7.11;90.94;103325.72;5010422;28;20498;-81
2024/01/09 07:31:41;;;;;;;10.32;6.53;;;;;;;-6.94;91.37;103351.69;4995992;28;20129;-80
2024/01/09 07:34:07;;;;;;;10.85;6.35;;;;;;;-7.00;92.10;103358.88;4994308;28;20169;-83
2024/01/09 07:36:32;;;;;;;9.43;6.30;;;;;;;-7.00;91.71;103363.91;4996206;28;20034;-81
2024/01/09 07:38:57;;;;;;;10.10;6.00;;;;;;;-6.98;91.05;103364.84;4978544;28;20069;-81
2024/01/09 07:41:23;;;;;;;10.40;6.10;;;;;;;-6.99;91.67;103371.53;4994599;28;20026;-80
2024/01/09 07:43:48;;;;;;;11.00;7.25;;;;;;;-7.32;90.52;103310.44;4995835;28;20101;-80
2024/01/09 07:46:13;;;;;;;10.45;6.47;;;;;;;-7.35;92.03;103320.34;4993809;28;20038;-81
2024/01/09 07:48:39;;;;;;;10.90;6.30;;;;;;;-7.00;90.83;103378.97;4995377;28;20018;-80
2024/01/09 07:51:04;;;;;;;9.90;6.50;;;;;;;-7.36;92.05;103322.78;4995593;28;20471;-80
2024/01/09 07:53:32;;;;;;;11.52;6.18;;;;;;;-7.24;92.15;103344.34;4994879;28;20129;-84
2024/01/09 07:55:58;;;;;;;11.57;6.65;;;;;;;-7.03;91.88;103379.69;4994611;28;20023;-81
2024/01/09 07:58:24;;;;;;;10.77;7.00;;;;;;;-7.39;91.53;103323.47;4994007;28;20437;-77
2024/01/09 08:00:49;;;;;;;11.18;6.65;;;;;;;-7.02;93.11;103381.41;4995562;28;20018;-77
2024/01/09 08:03:14;;;;;;;10.23;7.03;;;;;;;-7.05;92.89;103377.91;4995589;28;20030;-80
2024/01/09 08:05:40;;;;;;;11.00;7.78;;;;;;;-7.00;93.27;103392.41;4995588;28;20173;-77
2024/01/09 08:08:06;;;;;;;10.77;6.40;;;;;;;-7.16;92.75;103362.31;4995845;28;20470;-77
2024/01/09 08:10:31;;;;;;;10.95;6.22;;;;;;;-7.11;92.46;103362.53;4995912;28;20054;-77
2024/01/09 08:12:56;;;;;;;12.93;8.60;;;;;;;-6.99;92.87;103383.22;4995254;28;20036;-77
2024/01/09 08:15:22;;;;;;;11.60;6.60;;;;;;;-6.96;92.31;103396.81;4994555;28;20026;-77
2024/01/09 08:17:47;;;;;;;12.30;7.63;;;;;;;-7.02;92.20;103380.56;4995436;28;20026;-78
2024/01/09 08:20:12;;;;;;;12.20;7.40;;;;;;;-6.95;93.35;103398.53;4995177;28;20027;-77
2024/01/09 08:22:38;;;;;;;11.98;7.32;;;;;;;-6.96;92.60;103403.47;4995148;28;20089;-77
2024/01/09 08:25:05;;;;;;;12.48;7.88;;;;;;;-6.93;93.23;103408.66;4995120;28;20069;-78
2024/01/09 08:27:30;;;;;;;11.40;6.75;;;;;;;-6.94;92.46;103409.44;4993024;28;20502;-76
2024/01/09 08:29:55;;;;;;;11.32;7.55;;;;;;;-6.90;92.12;103397.88;4995358;28;20080;-80
2024/01/09 08:32:22;;;;;;;12.15;8.70;;;;;;;-6.90;92.64;103400.41;5010312;28;20026;-78
2024/01/09 08:34:48;;;;;;;11.88;7.45;;;;;;;-6.99;92.29;103385.72;4994867;28;20422;-77
2024/01/09 08:37:13;;;;;;;11.15;7.97;;;;;;;-6.89;92.48;103399.59;4994776;28;20065;-81
2024/01/09 08:39:38;;;;;;;10.85;7.13;;;;;;;-6.88;92.22;103414.78;4994910;28;20190;-78
2024/01/09 08:42:04;;;;;;;12.07;8.05;;;;;;;-7.17;90.85;103350.53;4995040;28;20030;-77
2024/01/09 08:44:29;;;;;;;11.38;8.10;;;;;;;-6.83;91.46;103412.47;4993268;28;20039;-81
2024/01/09 08:47:01;;;;;;;14.00;8.35;;;;;;;-6.83;91.82;103404.94;4995051;28;20145;-79
2024/01/09 08:49:27;;;;;;;12.07;7.50;;;;;;;-7.24;91.21;103339.31;4994702;28;20467;-81
2024/01/09 08:51:53;;;;;;;11.02;7.30;;;;;;;-6.80;90.70;103413.50;4994576;28;20034;-78
2024/01/09 08:54:18;;;;;;;11.00;7.40;;;;;;;-6.74;90.17;103417.97;4994829;28;20065;-80
2024/01/09 08:56:44;;;;;;;11.35;7.40;;;;;;;-6.70;89.59;103415.66;4994628;28;20030;-81
2024/01/09 08:59:09;;;;;;;11.85;8.18;;;;;;;-6.67;89.16;103414.97;4994680;28;20022;-79
2024/01/09 09:01:37;;;;;;;11.50;7.32;;;;;;;-6.79;88.88;103381.69;4994676;28;20088;-78
2024/01/09 09:04:03;;;;;;;11.20;7.50;;;;;;;-6.76;88.36;103395.28;4994461;28;20030;-78
2024/01/09 09:06:29;;;;;;;12.40;7.70;;;;;;;-6.60;88.56;103411.09;4993155;28;20101;-82
2024/01/09 09:08:56;;;;;;;11.80;6.65;;;;;;;-6.52;87.49;103422.38;4994420;28;20037;-79
2024/01/09 09:11:22;;;;;;;11.00;7.57;;;;;;;-6.51;88.47;103421.59;4992450;28;20030;-79
2024/01/09 09:13:47;;;;;;;10.85;7.63;;;;;;;-6.49;87.42;103420.00;4994420;28;20448;-83
2024/01/09 09:16:16;;;;;;;10.70;6.55;;;;;;;-6.47;88.06;103429.38;4993948;28;20026;-81
2024/01/09 09:18:45;;;;;;;13.38;8.18;;;;;;;-6.43;87.36;103440.44;4976846;28;20030;-81
2024/01/09 09:21:19;;;;;;;11.00;8.15;;;;;;;-7.68;86.70;103209.09;4975556;28;20482;-77
2024/01/09 09:23:45;;;;;;;11.80;7.43;;;;;;;-6.37;86.18;103430.69;4994253;28;20018;-80
2024/01/09 09:26:10;;;;;;;11.38;7.70;;;;;;;-6.33;86.39;103427.53;4993895;28;20046;-78
2024/01/09 09:28:35;;;;;;;11.93;7.97;;;;;;;-6.65;86.14;103358.97;4992831;28;20050;-81
2024/01/09 09:31:01;;;;;;;10.57;7.38;;;;;;;-6.41;84.94;103394.47;5165815;23;20394;-81
2024/01/09 09:33:30;;;;;;;11.52;6.57;;;;;;;-6.30;84.41;103411.72;4993978;28;20419;-81
2024/01/09 09:35:55;;;;;;;10.90;7.30;;;;;;;-6.22;85.25;103421.34;4993620;28;20030;-80
2024/01/09 09:38:22;;;;;;;13.27;8.57;;;;;;;-6.24;85.51;103414.53;4994275;28;20053;-78
2024/01/09 09:40:47;;;;;;;11.15;7.45;;;;;;;-6.44;84.54;103378.38;4993796;28;20290;-77
2024/01/09 09:43:24;;;;;;;11.93;7.07;;;;;;;-6.10;83.75;103442.03;4976251;28;20470;-78
2024/01/09 09:45:54;;;;;;;12.07;7.43;;;;;;;-6.08;83.95;103425.41;4991761;28;20495;-80
2024/01/09 09:48:23;;;;;;;10.70;7.57;;;;;;;-6.16;83.36;103421.66;4993529;28;20424;-78
2024/01/09 09:50:51;;;;;;;12.50;8.23;;;;;;;-6.07;83.08;103414.53;4993699;28;20031;-79
2024/01/09 09:53:18;;;;;;;11.93;7.63;;;;;;;-6.12;82.05;103400.88;4993767;28;20108;-77
2024/01/09 09:55:46;;;;;;;12.68;8.00;;;;;;;-5.93;81.66;103426.88;4993618;28;20030;-80
2024/01/09 09:58:12;;;;;;;11.30;7.88;;;;;;;-5.90;82.11;103417.81;4993715;28;20030;-79
2024/01/09 10:00:37;;;;;;;10.45;6.95;;;;;;;-5.85;80.54;103413.84;4993806;28;20064;-83
2024/01/09 10:03:08;;;;;;;12.98;8.25;;;;;;;-6.11;80.28;103359.84;4992496;28;20030;-82
2024/01/09 10:05:38;;;;;;;10.30;7.43;;;;;;;-6.20;80.73;103341.81;4993499;28;20478;-82
2024/01/09 10:08:08;;;;;;;12.00;8.02;;;;;;;-5.97;79.21;103370.56;4993427;28;20439;-75
2024/01/09 10:10:34;;;;;;;11.70;8.30;;;;;;;-5.93;80.38;103369.88;4993522;28;20036;-79
2024/01/09 10:13:03;;;;;;;12.98;8.25;;;;;;;-5.97;80.27;103357.97;4991858;28;20380;-82
2024/01/09 10:15:29;;;;;;;11.13;6.97;;;;;;;-5.84;77.83;103370.28;4975659;28;20027;-78
2024/01/09 10:17:54;;;;;;;12.55;8.25;;;;;;;-5.58;77.51;103403.31;4993208;28;20022;-79
2024/01/09 10:20:20;;;;;;;12.30;7.80;;;;;;;-5.55;76.85;103389.19;4993149;28;20471;-81
2024/01/09 10:22:45;;;;;;;12.30;8.13;;;;;;;-5.55;77.04;103389.19;4993039;28;20018;-81
2024/01/09 10:25:12;;;;;;;12.82;7.88;;;;;;;-5.60;77.03;103378.06;4993171;28;20064;-77
2024/01/09 10:27:39;;;;;;;11.80;7.20;;;;;;;-5.74;76.71;103335.44;4991328;28;20125;-81
2024/01/09 10:30:06;;;;;;;11.75;7.88;;;;;;;-5.45;76.71;103389.59;4999827;28;20028;-76
2024/01/09 10:32:32;;;;;;;11.65;7.30;;;;;;;-5.38;77.08;103386.56;5012345;28;20490;-78
2024/01/09 10:34:58;;;;;;;10.13;7.03;;;;;;;-5.62;74.91;103343.53;5012549;28;20113;-77
2024/01/09 10:37:24;;;;;;;10.30;7.18;;;;;;;-5.61;73.99;103327.63;5011897;28;20129;-79
2024/01/09 10:39:50;;;;;;;10.40;6.85;;;;;;;-5.33;74.36;103370.84;5011241;28;20018;-78
2024/01/09 10:42:16;;;;;;;10.65;6.63;;;;;;;-5.29;73.90;103369.34;5010920;28;20062;-80
2024/01/09 10:44:41;;;;;;;11.38;6.90;;;;;;;-5.17;73.39;103376.56;5011160;28;20022;-79
2024/01/09 10:47:14;;;;;;;10.18;7.18;;;;;;;-5.36;73.43;103327.91;5011028;28;20034;-81
2024/01/09 10:49:44;;;;;;;12.90;8.35;;;;;;;-5.18;72.07;103355.53;5012390;28;20026;-82
2024/01/09 10:52:13;;;;;;;13.10;7.50;;;;;;;-5.09;72.25;103368.53;5011272;28;20022;-82
2024/01/09 10:54:44;;;;;;;11.18;7.53;;;;;;;-5.01;71.42;103378.94;4995136;28;20026;-83
2024/01/09 10:57:19;;;;;;;13.13;7.90;;;;;;;-5.33;71.55;103307.03;5012279;28;20029;-82
2024/01/09 10:59:50;;;;;;;13.40;7.85;;;;;;;-4.94;71.29;103361.59;5005193;28;20023;-77
2024/01/09 11:02:21;;;;;;;11.35;7.38;;;;;;;-4.91;70.60;103354.19;4993063;28;20117;-77
2024/01/09 11:04:47;;;;;;;11.20;7.25;;;;;;;-4.85;70.26;103353.53;4975549;28;20150;-79
2024/01/09 11:07:14;;;;;;;12.73;7.53;;;;;;;-4.77;69.19;103348.81;4992685;28;20376;-79
2024/01/09 11:09:42;;;;;;;12.02;7.70;;;;;;;-4.81;69.77;103321.78;4992530;28;20030;-81
2024/01/09 11:12:15;;;;;;;9.80;6.63;;;;;;;-4.66;69.18;103337.50;4992486;28;20029;-81
2024/01/09 11:14:42;;;;;;;11.57;6.78;;;;;;;-5.37;68.24;103210.34;4992476;28;20026;-79
2024/01/09 11:17:09;;;;;;;11.25;7.00;;;;;;;-4.51;68.47;103332.22;4992683;28;20076;-80
2024/01/09 11:19:37;;;;;;;10.23;6.68;;;;;;;-4.81;67.69;103273.91;4991682;28;20026;-79
2024/01/09 11:22:17;;;;;;;11.45;7.10;;;;;;;-4.44;68.28;103335.03;4985043;28;20026;-77
2024/01/09 11:27:29;;;;;;;;;;;;;;;;;;;;;
2024/01/09 11:29:57;;;;;;;9.70;6.50;;;;;;;-5.64;64.48;103086.75;4991781;28;20459;-80
2024/01/09 11:32:33;;;;;;;9.82;6.13;;;;;;;-4.98;64.53;103187.56;4992302;28;20038;-80
2024/01/09 11:35:27;;;;;;;10.80;7.05;;;;;;;-4.16;62.75;103313.38;4992496;28;20117;-80